createdAt,value
2019-03-28T17:52:48.999Z,5.10
2019-03-28T17:55:19.852Z,4.00
2019-03-28T17:57:49.586Z,4.30
2019-03-28T18:00:19.770Z,4.15
2019-03-28T18:02:49.283Z,3.97
2019-03-28T18:05:18.982Z,3.73
2019-03-28T18:07:48.639Z,3.57
2019-03-28T18:10:19.133Z,3.40
2019-03-28T18:12:48.792Z,3.00
2019-03-28T18:15:18.662Z,2.90
2019-03-28T18:17:48.421Z,2.53
2019-03-28T18:20:18.125Z,3.33
2019-03-28T18:22:47.826Z,2.73
2019-03-28T18:25:17.725Z,2.70
2019-03-28T18:27:47.371Z,3.00
2019-03-28T18:30:17.992Z,2.70
2019-03-28T18:32:49.935Z,2.23
2019-03-28T18:35:19.099Z,2.83
2019-03-28T18:37:48.934Z,2.70
2019-03-28T18:40:18.664Z,2.43
2019-03-28T18:42:48.386Z,2.97
2019-03-28T18:45:18.078Z,2.63
2019-03-28T18:47:47.973Z,2.53
2019-03-28T18:50:17.948Z,2.87
2019-03-28T18:52:47.616Z,3.00
2019-03-28T18:55:20.502Z,3.07
2019-03-28T18:57:49.375Z,3.10
2019-03-28T19:00:20.203Z,2.63
2019-03-28T19:02:49.755Z,2.50
2019-03-28T19:05:20.422Z,2.70
2019-03-28T19:07:50.318Z,2.53
2019-03-28T19:10:20.478Z,3.10
2019-03-28T19:12:50.023Z,3.30
2019-03-28T19:15:23.710Z,3.30
2019-03-28T19:17:53.440Z,3.00
2019-03-28T19:20:23.048Z,3.10
2019-03-28T19:22:52.684Z,3.00
2019-03-28T19:25:22.358Z,2.93
2019-03-28T19:27:54.303Z,3.43
2019-03-28T19:30:32.193Z,3.47
2019-03-28T19:33:02.233Z,3.40
2019-03-28T19:35:33.532Z,3.40
2019-03-28T19:38:04.394Z,2.90
2019-03-28T19:40:35.430Z,3.43
2019-03-28T19:43:18.915Z,4.00
2019-03-28T19:45:37.351Z,4.07
2019-03-28T19:48:08.746Z,4.17
2019-03-28T19:50:38.282Z,3.77
2019-03-28T19:53:11.280Z,4.80
2019-03-28T19:55:40.027Z,4.70
2019-03-28T19:58:13.214Z,4.63
2019-03-28T20:00:41.172Z,4.53
2019-03-28T20:03:10.884Z,4.70
2019-03-28T20:05:47.343Z,5.60
2019-03-28T20:08:16.107Z,5.70
2019-03-28T20:10:42.977Z,5.40
2019-03-28T20:13:13.465Z,5.30
2019-03-28T20:15:43.121Z,5.80
2019-03-28T20:18:12.880Z,6.50
2019-03-28T20:20:42.958Z,5.67
2019-03-28T20:23:12.494Z,5.50
2019-03-28T20:25:42.944Z,6.30
2019-03-28T20:28:14.450Z,5.83
2019-03-28T20:30:44.215Z,5.73
2019-03-28T20:33:13.833Z,6.43
2019-03-28T20:35:43.514Z,6.20
2019-03-28T20:38:13.250Z,6.70
2019-03-28T20:40:43.472Z,5.70
2019-03-28T20:43:13.416Z,6.20
2019-03-28T20:45:42.977Z,6.37
2019-03-28T20:48:12.528Z,6.10
2019-03-28T20:50:42.270Z,5.50
2019-03-28T20:53:12.292Z,5.97
2019-03-28T20:55:41.798Z,6.20
2019-03-28T20:58:11.379Z,5.90
2019-03-28T21:00:45.882Z,6.90
2019-03-28T21:03:15.961Z,6.17
2019-03-28T21:05:46.423Z,6.50
2019-03-28T21:08:16.123Z,6.43
2019-03-28T21:10:45.754Z,5.43
2019-03-28T21:13:15.481Z,6.20
2019-03-28T21:15:45.751Z,6.67
2019-03-28T21:18:15.565Z,6.30
2019-03-28T21:20:45.118Z,6.10
2019-03-28T21:23:14.690Z,7.30
2019-03-28T21:25:44.335Z,7.17
2019-03-28T21:28:14.116Z,6.30
2019-03-28T21:30:47.475Z,7.60
2019-03-28T21:33:15.374Z,6.50
2019-03-28T21:35:45.197Z,7.30
2019-03-28T21:38:14.774Z,6.00
2019-03-28T21:40:44.368Z,7.50
2019-03-28T21:43:13.865Z,7.10
2019-03-28T21:45:45.834Z,7.63
2019-03-28T21:48:16.931Z,7.80
2019-03-28T21:50:47.109Z,6.87
2019-03-28T21:53:19.723Z,7.77
2019-03-28T21:55:55.120Z,8.07
2019-03-28T21:58:20.186Z,6.77
2019-03-28T22:00:49.729Z,7.20
2019-03-28T22:03:19.243Z,7.43
2019-03-28T22:05:48.914Z,7.37
2019-03-28T22:08:18.607Z,6.20
2019-03-28T22:10:48.176Z,7.17
2019-03-28T22:13:17.700Z,6.37
2019-03-28T22:15:47.163Z,7.43
2019-03-28T22:18:16.613Z,6.83
2019-03-28T22:20:46.074Z,6.03
2019-03-28T22:23:15.606Z,5.93
2019-03-28T22:25:45.187Z,6.90
2019-03-28T22:28:14.662Z,6.47
2019-03-28T22:30:44.193Z,6.90
2019-03-28T22:33:13.747Z,6.40
2019-03-28T22:35:43.379Z,6.60
2019-03-28T22:38:12.920Z,6.53
2019-03-28T22:40:43.952Z,8.20
2019-03-28T22:43:13.729Z,7.03
2019-03-28T22:45:43.924Z,5.70
2019-03-28T22:48:13.711Z,7.10
2019-03-28T22:50:43.388Z,6.00
2019-03-28T22:53:13.152Z,6.53
2019-03-28T22:55:42.723Z,6.90
2019-03-28T22:58:12.275Z,6.90
2019-03-28T23:00:44.956Z,7.15
2019-03-28T23:03:16.256Z,7.03
2019-03-28T23:05:45.941Z,6.50
2019-03-28T23:08:15.545Z,6.03
2019-03-28T23:10:45.138Z,6.33
2019-03-28T23:13:14.794Z,7.40
2019-03-28T23:15:44.386Z,7.23
2019-03-28T23:18:13.959Z,7.67
2019-03-28T23:20:43.615Z,8.07
2019-03-28T23:23:13.267Z,8.10
2019-03-28T23:25:42.945Z,7.73
2019-03-28T23:28:12.550Z,8.30
